sensor_id;sensor_type;location;lat;lon;timestamp;pressure;altitude;pressure_sealevel;temperature;humidity
55301;BME280;58302;51.446;-2.000;2022-10-04T00:02:56;101087.03;;;13.65;100.00
55301;BME280;58302;51.446;-2.000;2022-10-04T00:05:24;101075.28;;;13.64;100.00
55301;BME280;58302;51.446;-2.000;2022-10-04T00:07:54;101068.72;;;13.60;100.00
55301;BME280;58302;51.446;-2.000;2022-10-04T00:10:28;101068.97;;;13.54;100.00
55301;BME280;58302;51.446;-2.000;2022-10-04T00:13:05;101070.84;;;13.38;100.00
55301;BME280;58302;51.446;-2.000;2022-10-04T00:15:35;101067.53;;;13.26;100.00
55301;BME280;58302;51.446;-2.000;2022-10-04T00:26:04;101063.31;;;13.03;100.00
55301;BME280;58302;51.446;-2.000;2022-10-04T00:31:24;101059.97;;;12.90;100.00
55301;BME280;58302;51.446;-2.000;2022-10-04T00:33:53;101057.78;;;12.87;100.00
55301;BME280;58302;51.446;-2.000;2022-10-04T00:44:10;101024.25;;;12.87;100.00
55301;BME280;58302;51.446;-2.000;2022-10-04T00:46:43;101018.19;;;12.80;100.00
55301;BME280;58302;51.446;-2.000;2022-10-04T00:49:12;101011.38;;;12.77;100.00
55301;BME280;58302;51.446;-2.000;2022-10-04T00:51:49;101011.94;;;12.84;100.00
55301;BME280;58302;51.446;-2.000;2022-10-04T00:54:22;101015.25;;;12.91;100.00
55301;BME280;58302;51.446;-2.000;2022-10-04T00:56:55;101012.53;;;13.02;100.00
55301;BME280;58302;51.446;-2.000;2022-10-04T01:01:57;101013.16;;;13.14;100.00
55301;BME280;58302;51.446;-2.000;2022-10-04T01:04:29;101002.25;;;13.19;100.00
55301;BME280;58302;51.446;-2.000;2022-10-04T01:07:01;101003.38;;;13.28;100.00
55301;BME280;58302;51.446;-2.000;2022-10-04T01:09:33;101000.13;;;13.31;100.00
55301;BME280;58302;51.446;-2.000;2022-10-04T01:12:06;100999.03;;;13.37;100.00
55301;BME280;58302;51.446;-2.000;2022-10-04T01:14:59;100995.50;;;13.42;100.00
55301;BME280;58302;51.446;-2.000;2022-10-04T01:17:27;100987.31;;;13.42;100.00
55301;BME280;58302;51.446;-2.000;2022-10-04T01:19:54;100989.22;;;13.47;100.00
55301;BME280;58302;51.446;-2.000;2022-10-04T01:22:35;100979.94;;;13.48;100.00
55301;BME280;58302;51.446;-2.000;2022-10-04T01:25:01;100965.72;;;13.45;100.00
55301;BME280;58302;51.446;-2.000;2022-10-04T01:27:43;100969.56;;;13.50;100.00
55301;BME280;58302;51.446;-2.000;2022-10-04T01:30:14;100962.47;;;13.49;100.00
55301;BME280;58302;51.446;-2.000;2022-10-04T01:32:41;100978.31;;;13.52;100.00
55301;BME280;58302;51.446;-2.000;2022-10-04T01:35:11;100968.47;;;13.51;100.00
55301;BME280;58302;51.446;-2.000;2022-10-04T01:37:38;100972.56;;;13.48;100.00
55301;BME280;58302;51.446;-2.000;2022-10-04T01:40:07;100966.28;;;13.42;100.00
55301;BME280;58302;51.446;-2.000;2022-10-04T01:42:42;100970.09;;;13.41;100.00
55301;BME280;58302;51.446;-2.000;2022-10-04T01:47:55;100968.72;;;13.39;100.00
55301;BME280;58302;51.446;-2.000;2022-10-04T01:50:30;100960.81;;;13.37;100.00
55301;BME280;58302;51.446;-2.000;2022-10-04T01:53:22;100963.81;;;13.36;100.00
55301;BME280;58302;51.446;-2.000;2022-10-04T01:55:53;100961.63;;;13.33;100.00
55301;BME280;58302;51.446;-2.000;2022-10-04T01:58:28;100954.53;;;13.32;100.00
55301;BME280;58302;51.446;-2.000;2022-10-04T02:01:03;100950.16;;;13.31;100.00
55301;BME280;58302;51.446;-2.000;2022-10-04T02:03:35;100947.69;;;13.29;100.00
55301;BME280;58302;51.446;-2.000;2022-10-04T02:06:06;100947.16;;;13.27;100.00
55301;BME280;58302;51.446;-2.000;2022-10-04T02:08:36;100939.25;;;13.31;100.00
55301;BME280;58302;51.446;-2.000;2022-10-04T02:11:05;100943.31;;;13.28;100.00
55301;BME280;58302;51.446;-2.000;2022-10-04T02:13:36;100937.03;;;13.28;100.00
55301;BME280;58302;51.446;-2.000;2022-10-04T02:16:07;100934.88;;;13.25;100.00
55301;BME280;58302;51.446;-2.000;2022-10-04T02:18:37;100934.88;;;13.25;100.00
55301;BME280;58302;51.446;-2.000;2022-10-04T02:21:05;100921.75;;;13.27;100.00
55301;BME280;58302;51.446;-2.000;2022-10-04T02:23:31;100911.13;;;13.25;100.00
55301;BME280;58302;51.446;-2.000;2022-10-04T02:26:06;100916.31;;;13.27;100.00
55301;BME280;58302;51.446;-2.000;2022-10-04T02:28:33;100913.28;;;13.28;100.00
55301;BME280;58302;51.446;-2.000;2022-10-04T02:31:00;100914.41;;;13.27;100.00
55301;BME280;58302;51.446;-2.000;2022-10-04T02:33:48;100913.28;;;13.28;100.00
55301;BME280;58302;51.446;-2.000;2022-10-04T02:36:15;100914.09;;;13.29;100.00
55301;BME280;58302;51.446;-2.000;2022-10-04T02:38:55;100905.91;;;13.29;100.00
55301;BME280;58302;51.446;-2.000;2022-10-04T02:41:36;100911.66;;;13.27;100.00
55301;BME280;58302;51.446;-2.000;2022-10-04T02:47:04;100917.41;;;13.26;100.00
55301;BME280;58302;51.446;-2.000;2022-10-04T02:49:34;100896.38;;;13.21;100.00
55301;BME280;58302;51.446;-2.000;2022-10-04T02:54:41;100894.75;;;13.25;100.00
55301;BME280;58302;51.446;-2.000;2022-10-04T02:57:18;100889.28;;;13.25;100.00
55301;BME280;58302;51.446;-2.000;2022-10-04T02:59:44;100875.63;;;13.25;100.00
55301;BME280;58302;51.446;-2.000;2022-10-04T03:02:40;100864.72;;;13.30;100.00
55301;BME280;58302;51.446;-2.000;2022-10-04T03:05:09;100860.34;;;13.34;100.00
55301;BME280;58302;51.446;-2.000;2022-10-04T03:07:36;100855.97;;;13.33;100.00
55301;BME280;58302;51.446;-2.000;2022-10-04T03:10:12;100858.16;;;13.36;100.00
55301;BME280;58302;51.446;-2.000;2022-10-04T03:12:38;100853.81;;;13.35;100.00
55301;BME280;58302;51.446;-2.000;2022-10-04T03:15:08;100855.69;;;13.35;100.00
55301;BME280;58302;51.446;-2.000;2022-10-04T03:17:35;100855.69;;;13.35;100.00
55301;BME280;58302;51.446;-2.000;2022-10-04T03:20:03;100859.81;;;13.32;100.00
55301;BME280;58302;51.446;-2.000;2022-10-04T03:22:30;100865.25;;;13.32;100.00
55301;BME280;58302;51.446;-2.000;2022-10-04T03:24:56;100855.72;;;13.30;100.00
55301;BME280;58302;51.446;-2.000;2022-10-04T03:27:28;100854.34;;;13.27;100.00
55301;BME280;58302;51.446;-2.000;2022-10-04T03:29:56;100864.97;;;13.29;100.00
55301;BME280;58302;51.446;-2.000;2022-10-04T03:32:24;100847.53;;;13.25;100.00
55301;BME280;58302;51.446;-2.000;2022-10-04T03:34:59;100855.72;;;13.25;100.00
55301;BME280;58302;51.446;-2.000;2022-10-04T03:37:25;100863.09;;;13.24;100.00
55301;BME280;58302;51.446;-2.000;2022-10-04T03:39:54;100851.59;;;13.22;100.00
55301;BME280;58302;51.446;-2.000;2022-10-04T03:42:24;100858.16;;;13.21;100.00
55301;BME280;58302;51.446;-2.000;2022-10-04T03:44:53;100853.00;;;13.25;100.00
55301;BME280;58302;51.446;-2.000;2022-10-04T03:47:25;100853.81;;;13.25;100.00
55301;BME280;58302;51.446;-2.000;2022-10-04T03:49:53;100851.59;;;13.27;100.00
55301;BME280;58302;51.446;-2.000;2022-10-04T03:52:24;100852.72;;;13.26;100.00
55301;BME280;58302;51.446;-2.000;2022-10-04T03:54:52;100850.78;;;13.27;100.00
55301;BME280;58302;51.446;-2.000;2022-10-04T03:57:20;100841.78;;;13.26;100.00
55301;BME280;58302;51.446;-2.000;2022-10-04T03:59:46;100843.97;;;13.24;100.00
55301;BME280;58302;51.446;-2.000;2022-10-04T04:02:23;100835.78;;;13.24;100.00
55301;BME280;58302;51.446;-2.000;2022-10-04T04:07:38;100832.22;;;13.24;100.00
55301;BME280;58302;51.446;-2.000;2022-10-04T04:12:45;100840.13;;;13.20;100.00
55301;BME280;58302;51.446;-2.000;2022-10-04T04:15:16;100846.16;;;13.22;100.00
55301;BME280;58302;51.446;-2.000;2022-10-04T04:17:47;100843.66;;;13.21;100.00
55301;BME280;58302;51.446;-2.000;2022-10-04T04:22:56;100850.47;;;13.13;100.00
55301;BME280;58302;51.446;-2.000;2022-10-04T04:25:25;100840.66;;;13.07;100.00
55301;BME280;58302;51.446;-2.000;2022-10-04T04:27:58;100850.50;;;13.08;100.00
55301;BME280;58302;51.446;-2.000;2022-10-04T04:30:27;100840.41;;;13.03;100.00
55301;BME280;58302;51.446;-2.000;2022-10-04T04:32:56;100836.56;;;13.04;100.00
55301;BME280;58302;51.446;-2.000;2022-10-04T04:35:30;100854.03;;;13.03;100.00
55301;BME280;58302;51.446;-2.000;2022-10-04T04:38:18;100854.03;;;12.98;100.00
55301;BME280;58302;51.446;-2.000;2022-10-04T04:40:45;100857.03;;;12.97;100.00
55301;BME280;58302;51.446;-2.000;2022-10-04T04:43:17;100844.22;;;12.92;100.00
55301;BME280;58302;51.446;-2.000;2022-10-04T04:45:46;100840.38;;;12.83;100.00
55301;BME280;58302;51.446;-2.000;2022-10-04T04:48:16;100847.44;;;12.74;100.00
55301;BME280;58302;51.446;-2.000;2022-10-04T04:50:48;100841.16;;;12.68;100.00
55301;BME280;58302;51.446;-2.000;2022-10-04T04:53:18;100842.50;;;12.55;100.00
55301;BME280;58302;51.446;-2.000;2022-10-04T04:56:24;100838.06;;;12.39;100.00
55301;BME280;58302;51.446;-2.000;2022-10-04T04:58:43;100845.09;;;12.25;100.00
55301;BME280;58302;51.446;-2.000;2022-10-04T05:01:23;100848.59;;;12.10;100.00
55301;BME280;58302;51.446;-2.000;2022-10-04T05:04:01;100843.09;;;12.00;100.00
55301;BME280;58302;51.446;-2.000;2022-10-04T05:06:29;100847.97;;;11.93;100.00
55301;BME280;58302;51.446;-2.000;2022-10-04T05:08:55;100848.53;;;11.95;100.00
55301;BME280;58302;51.446;-2.000;2022-10-04T05:11:25;100845.78;;;11.95;100.00
55301;BME280;58302;51.446;-2.000;2022-10-04T05:14:00;100844.97;;;11.94;100.00
55301;BME280;58302;51.446;-2.000;2022-10-04T05:16:59;100840.91;;;12.02;100.00
55301;BME280;58302;51.446;-2.000;2022-10-04T05:19:31;100837.13;;;12.08;100.00
55301;BME280;58302;51.446;-2.000;2022-10-04T05:22:02;100834.72;;;12.17;100.00
55301;BME280;58302;51.446;-2.000;2022-10-04T05:24:35;100842.66;;;12.23;100.00
55301;BME280;58302;51.446;-2.000;2022-10-04T05:27:38;100838.03;;;12.29;100.00
55301;BME280;58302;51.446;-2.000;2022-10-04T05:33:10;100828.00;;;12.39;100.00
55301;BME280;58302;51.446;-2.000;2022-10-04T05:41:28;100829.63;;;12.46;100.00
55301;BME280;58302;51.446;-2.000;2022-10-04T05:43:57;100828.28;;;12.43;100.00
55301;BME280;58302;51.446;-2.000;2022-10-04T05:46:30;100832.66;;;12.44;100.00
55301;BME280;58302;51.446;-2.000;2022-10-04T05:49:01;100827.19;;;12.44;100.00
55301;BME280;58302;51.446;-2.000;2022-10-04T05:51:34;100829.41;;;12.47;100.00
55301;BME280;58302;51.446;-2.000;2022-10-04T05:54:03;100822.03;;;12.48;100.00
55301;BME280;58302;51.446;-2.000;2022-10-04T06:01:40;100820.13;;;12.53;100.00
55301;BME280;58302;51.446;-2.000;2022-10-04T06:13:00;100801.88;;;12.59;100.00
55301;BME280;58302;51.446;-2.000;2022-10-04T06:18:14;100782.81;;;12.59;100.00
55301;BME280;58302;51.446;-2.000;2022-10-04T06:23:16;100789.06;;;12.64;100.00
55301;BME280;58302;51.446;-2.000;2022-10-04T06:26:13;100793.72;;;12.69;100.00
55301;BME280;58302;51.446;-2.000;2022-10-04T06:32:05;100795.38;;;12.75;100.00
55301;BME280;58302;51.446;-2.000;2022-10-04T06:35:00;100802.16;;;12.78;100.00
55301;BME280;58302;51.446;-2.000;2022-10-04T06:46:07;100795.63;;;12.94;100.00
55301;BME280;58302;51.446;-2.000;2022-10-04T06:49:01;100785.53;;;13.00;100.00
55301;BME280;58302;51.446;-2.000;2022-10-04T06:54:17;100796.19;;;13.16;100.00
55301;BME280;58302;51.446;-2.000;2022-10-04T07:02:34;100783.66;;;13.26;100.00
55301;BME280;58302;51.446;-2.000;2022-10-04T07:05:14;100788.28;;;13.30;100.00
55301;BME280;58302;51.446;-2.000;2022-10-04T07:07:47;100786.09;;;13.32;100.00
55301;BME280;58302;51.446;-2.000;2022-10-04T07:10:32;100792.38;;;13.38;100.00
55301;BME280;58302;51.446;-2.000;2022-10-04T07:13:04;100780.34;;;13.39;100.00
55301;BME280;58302;51.446;-2.000;2022-10-04T07:15:53;100782.78;;;13.40;100.00
55301;BME280;58302;51.446;-2.000;2022-10-04T07:18:28;100781.97;;;13.50;100.00
55301;BME280;58302;51.446;-2.000;2022-10-04T07:21:04;100776.25;;;13.52;100.00
55301;BME280;58302;51.446;-2.000;2022-10-04T07:23:56;100772.41;;;13.63;100.00
55301;BME280;58302;51.446;-2.000;2022-10-04T07:26:32;100782.75;;;13.66;100.00
55301;BME280;58302;51.446;-2.000;2022-10-04T07:29:05;100778.38;;;13.70;100.00
55301;BME280;58302;51.446;-2.000;2022-10-04T07:32:04;100777.00;;;13.62;100.00
55301;BME280;58302;51.446;-2.000;2022-10-04T07:37:07;100787.91;;;13.67;100.00
55301;BME280;58302;51.446;-2.000;2022-10-04T07:42:34;100805.16;;;13.68;100.00
55301;BME280;58302;51.446;-2.000;2022-10-04T07:48:11;100805.13;;;13.73;100.00
55301;BME280;58302;51.446;-2.000;2022-10-04T07:56:36;100787.00;;;13.97;100.00
55301;BME280;58302;51.446;-2.000;2022-10-04T08:07:19;100776.38;;;14.45;100.00
55301;BME280;58302;51.446;-2.000;2022-10-04T08:10:02;100785.66;;;14.44;100.00
55301;BME280;58302;51.446;-2.000;2022-10-04T08:12:58;100795.78;;;14.44;100.00
55301;BME280;58302;51.446;-2.000;2022-10-04T08:15:38;100788.50;;;14.34;100.00
55301;BME280;58302;51.446;-2.000;2022-10-04T08:21:13;100786.81;;;14.33;100.00
55301;BME280;58302;51.446;-2.000;2022-10-04T08:29:17;100787.44;;;14.25;100.00
55301;BME280;58302;51.446;-2.000;2022-10-04T08:46:10;100794.91;;;14.98;100.00
55301;BME280;58302;51.446;-2.000;2022-10-04T09:10:46;100795.63;;;14.74;100.00
55301;BME280;58302;51.446;-2.000;2022-10-04T09:15:54;100790.13;;;14.35;100.00
55301;BME280;58302;51.446;-2.000;2022-10-04T09:18:48;100792.31;;;14.28;100.00
55301;BME280;58302;51.446;-2.000;2022-10-04T09:21:25;100798.91;;;14.27;100.00
55301;BME280;58302;51.446;-2.000;2022-10-04T09:27:31;100795.03;;;14.33;100.00
55301;BME280;58302;51.446;-2.000;2022-10-04T09:30:02;100786.63;;;14.19;100.00
55301;BME280;58302;51.446;-2.000;2022-10-04T09:55:46;100793.72;;;15.91;100.00
55301;BME280;58302;51.446;-2.000;2022-10-04T10:12:10;100785.13;;;16.22;100.00
55301;BME280;58302;51.446;-2.000;2022-10-04T10:14:58;100785.56;;;16.29;100.00
55301;BME280;58302;51.446;-2.000;2022-10-04T10:17:52;100798.53;;;16.23;100.00
55301;BME280;58302;51.446;-2.000;2022-10-04T10:20:52;100796.97;;;16.17;100.00
55301;BME280;58302;51.446;-2.000;2022-10-04T10:26:19;100789.13;;;16.29;100.00
55301;BME280;58302;51.446;-2.000;2022-10-04T10:31:53;100782.91;;;16.24;100.00
55301;BME280;58302;51.446;-2.000;2022-10-04T10:37:16;100760.75;;;16.77;100.00
55301;BME280;58302;51.446;-2.000;2022-10-04T10:43:02;100755.59;;;18.32;100.00
55301;BME280;58302;51.446;-2.000;2022-10-04T11:00:22;100734.16;;;19.63;87.49
55301;BME280;58302;51.446;-2.000;2022-10-04T11:26:17;100748.84;;;18.38;87.55
55301;BME280;58302;51.446;-2.000;2022-10-04T12:12:56;100724.38;;;19.26;78.11
55301;BME280;58302;51.446;-2.000;2022-10-04T12:32:28;100701.69;;;17.67;92.96
55301;BME280;58302;51.446;-2.000;2022-10-04T12:43:41;100686.63;;;17.64;95.42
55301;BME280;58302;51.446;-2.000;2022-10-04T13:00:24;100700.56;;;17.96;92.98
55301;BME280;58302;51.446;-2.000;2022-10-04T13:03:56;100695.63;;;18.42;89.91
55301;BME280;58302;51.446;-2.000;2022-10-04T13:06:10;100675.50;;;18.56;86.29
55301;BME280;58302;51.446;-2.000;2022-10-04T13:23:06;100685.75;;;18.64;85.26
55301;BME280;58302;51.446;-2.000;2022-10-04T13:30:58;100685.66;;;18.47;87.38
55301;BME280;58302;51.446;-2.000;2022-10-04T13:33:56;100668.94;;;18.65;85.55
55301;BME280;58302;51.446;-2.000;2022-10-04T13:53:04;100663.28;;;19.81;79.54
55301;BME280;58302;51.446;-2.000;2022-10-04T13:59:15;100661.19;;;19.87;77.62
55301;BME280;58302;51.446;-2.000;2022-10-04T14:04:34;100659.47;;;19.51;81.10
55301;BME280;58302;51.446;-2.000;2022-10-04T14:13:17;100655.47;;;19.66;82.13
55301;BME280;58302;51.446;-2.000;2022-10-04T14:30:23;100628.81;;;19.04;83.94
55301;BME280;58302;51.446;-2.000;2022-10-04T14:33:18;100645.94;;;18.92;85.19
55301;BME280;58302;51.446;-2.000;2022-10-04T14:38:51;100648.94;;;18.74;84.97
55301;BME280;58302;51.446;-2.000;2022-10-04T14:52:37;100651.38;;;18.53;90.57
55301;BME280;58302;51.446;-2.000;2022-10-04T14:55:52;100643.56;;;18.68;89.12
55301;BME280;58302;51.446;-2.000;2022-10-04T15:01:23;100645.34;;;18.28;92.30
55301;BME280;58302;51.446;-2.000;2022-10-04T15:06:43;100643.59;;;18.10;94.64
55301;BME280;58302;51.446;-2.000;2022-10-04T15:12:37;100625.25;;;18.05;94.52
55301;BME280;58302;51.446;-2.000;2022-10-04T15:18:00;100642.31;;;17.80;97.32
55301;BME280;58302;51.446;-2.000;2022-10-04T15:20:45;100646.63;;;17.72;98.52
55301;BME280;58302;51.446;-2.000;2022-10-04T15:23:14;100635.41;;;17.69;98.41
55301;BME280;58302;51.446;-2.000;2022-10-04T15:28:31;100640.44;;;17.39;100.00
55301;BME280;58302;51.446;-2.000;2022-10-04T15:31:18;100626.91;;;17.29;100.00
55301;BME280;58302;51.446;-2.000;2022-10-04T15:34:00;100612.84;;;17.30;100.00
55301;BME280;58302;51.446;-2.000;2022-10-04T15:47:25;100606.66;;;17.38;100.00
55301;BME280;58302;51.446;-2.000;2022-10-04T15:50:18;100611.94;;;17.35;100.00
55301;BME280;58302;51.446;-2.000;2022-10-04T15:53:03;100622.63;;;17.23;100.00
55301;BME280;58302;51.446;-2.000;2022-10-04T16:20:22;100618.03;;;16.44;100.00
55301;BME280;58302;51.446;-2.000;2022-10-04T16:23:28;100629.00;;;16.44;100.00
55301;BME280;58302;51.446;-2.000;2022-10-04T16:25:57;100620.22;;;16.42;100.00
55301;BME280;58302;51.446;-2.000;2022-10-04T16:28:41;100610.19;;;16.38;100.00
55301;BME280;58302;51.446;-2.000;2022-10-04T16:37:14;100599.00;;;16.34;100.00
55301;BME280;58302;51.446;-2.000;2022-10-04T17:16:17;100592.31;;;15.89;100.00
55301;BME280;58302;51.446;-2.000;2022-10-04T17:19:08;100598.38;;;15.86;100.00
55301;BME280;58302;51.446;-2.000;2022-10-04T17:24:54;100609.09;;;15.82;100.00
55301;BME280;58302;51.446;-2.000;2022-10-04T17:27:46;100617.63;;;15.80;100.00
55301;BME280;58302;51.446;-2.000;2022-10-04T17:30:22;100597.94;;;15.78;100.00
55301;BME280;58302;51.446;-2.000;2022-10-04T17:33:28;100594.97;;;15.75;100.00
55301;BME280;58302;51.446;-2.000;2022-10-04T17:38:57;100597.19;;;15.73;100.00
55301;BME280;58302;51.446;-2.000;2022-10-04T17:41:51;100598.31;;;15.72;100.00
55301;BME280;58302;51.446;-2.000;2022-10-04T17:47:26;100600.53;;;15.70;100.00
55301;BME280;58302;51.446;-2.000;2022-10-04T17:50:27;100604.88;;;15.71;100.00
55301;BME280;58302;51.446;-2.000;2022-10-04T17:53:18;100602.75;;;15.68;100.00
55301;BME280;58302;51.446;-2.000;2022-10-04T17:56:05;100596.16;;;15.69;100.00
55301;BME280;58302;51.446;-2.000;2022-10-04T18:01:32;100581.94;;;15.67;100.00
55301;BME280;58302;51.446;-2.000;2022-10-04T18:04:22;100572.91;;;15.66;100.00
55301;BME280;58302;51.446;-2.000;2022-10-04T18:06:57;100580.59;;;15.64;100.00
55301;BME280;58302;51.446;-2.000;2022-10-04T18:09:31;100594.31;;;15.64;100.00
55301;BME280;58302;51.446;-2.000;2022-10-04T18:12:00;100583.34;;;15.64;100.00
55301;BME280;58302;51.446;-2.000;2022-10-04T18:16:56;100584.72;;;15.62;100.00
55301;BME280;58302;51.446;-2.000;2022-10-04T18:22:20;100559.00;;;15.63;100.00
55301;BME280;58302;51.446;-2.000;2022-10-04T18:25:12;100558.44;;;15.61;100.00
55301;BME280;58302;51.446;-2.000;2022-10-04T18:30:28;100548.06;;;15.58;100.00
55301;BME280;58302;51.446;-2.000;2022-10-04T18:32:55;100546.22;;;15.53;100.00
55301;BME280;58302;51.446;-2.000;2022-10-04T18:37:51;100559.47;;;15.46;100.00
55301;BME280;58302;51.446;-2.000;2022-10-04T18:40:18;100563.03;;;15.46;100.00
55301;BME280;58302;51.446;-2.000;2022-10-04T18:42:51;100558.97;;;15.44;100.00
55301;BME280;58302;51.446;-2.000;2022-10-04T18:45:22;100545.03;;;15.40;100.00
55301;BME280;58302;51.446;-2.000;2022-10-04T18:47:48;100562.03;;;15.37;100.00
55301;BME280;58302;51.446;-2.000;2022-10-04T18:50:37;100570.25;;;15.37;100.00
55301;BME280;58302;51.446;-2.000;2022-10-04T18:53:35;100574.91;;;15.37;100.00
55301;BME280;58302;51.446;-2.000;2022-10-04T18:56:09;100566.41;;;15.38;100.00
55301;BME280;58302;51.446;-2.000;2022-10-04T19:07:37;100577.34;;;15.38;100.00
55301;BME280;58302;51.446;-2.000;2022-10-04T19:10:32;100579.59;;;15.36;100.00
55301;BME280;58302;51.446;-2.000;2022-10-04T19:21:00;100568.19;;;15.29;100.00
55301;BME280;58302;51.446;-2.000;2022-10-04T19:26:15;100540.25;;;15.27;100.00
55301;BME280;58302;51.446;-2.000;2022-10-04T19:28:52;100553.38;;;15.30;100.00
55301;BME280;58302;51.446;-2.000;2022-10-04T19:31:32;100549.31;;;15.27;100.00
55301;BME280;58302;51.446;-2.000;2022-10-04T19:34:07;100544.66;;;15.28;100.00
55301;BME280;58302;51.446;-2.000;2022-10-04T19:36:58;100557.22;;;15.29;100.00
55301;BME280;58302;51.446;-2.000;2022-10-04T19:45:34;100550.94;;;15.28;100.00
55301;BME280;58302;51.446;-2.000;2022-10-04T19:48:17;100544.66;;;15.28;100.00
55301;BME280;58302;51.446;-2.000;2022-10-04T19:50:48;100551.75;;;15.29;100.00
55301;BME280;58302;51.446;-2.000;2022-10-04T19:55:58;100545.22;;;15.25;100.00
55301;BME280;58302;51.446;-2.000;2022-10-04T20:01:14;100534.78;;;15.27;100.00
55301;BME280;58302;51.446;-2.000;2022-10-04T20:03:41;100529.84;;;15.29;100.00
55301;BME280;58302;51.446;-2.000;2022-10-04T20:06:09;100528.22;;;15.28;100.00
55301;BME280;58302;51.446;-2.000;2022-10-04T20:08:53;100535.91;;;15.26;100.00
55301;BME280;58302;51.446;-2.000;2022-10-04T20:11:25;100531.47;;;15.30;100.00
55301;BME280;58302;51.446;-2.000;2022-10-04T20:27:05;100527.41;;;15.27;100.00
55301;BME280;58302;51.446;-2.000;2022-10-04T20:32:07;100530.34;;;15.31;100.00
55301;BME280;58302;51.446;-2.000;2022-10-04T20:37:06;100524.88;;;15.31;100.00
55301;BME280;58302;51.446;-2.000;2022-10-04T20:39:55;100512.25;;;15.35;100.00
55301;BME280;58302;51.446;-2.000;2022-10-04T20:42:31;100504.31;;;15.34;100.00
55301;BME280;58302;51.446;-2.000;2022-10-04T20:47:44;100514.47;;;15.33;100.00
55301;BME280;58302;51.446;-2.000;2022-10-04T20:52:45;100506.75;;;15.35;100.00
55301;BME280;58302;51.446;-2.000;2022-10-04T20:55:27;100492.47;;;15.38;100.00
55301;BME280;58302;51.446;-2.000;2022-10-04T20:58:24;100500.69;;;15.38;100.00
55301;BME280;58302;51.446;-2.000;2022-10-04T21:01:01;100506.75;;;15.35;100.00
55301;BME280;58302;51.446;-2.000;2022-10-04T21:03:38;100492.47;;;15.38;100.00
55301;BME280;58302;51.446;-2.000;2022-10-04T21:06:07;100502.91;;;15.36;100.00
55301;BME280;58302;51.446;-2.000;2022-10-04T21:08:34;100489.72;;;15.38;100.00
55301;BME280;58302;51.446;-2.000;2022-10-04T21:11:08;100475.22;;;15.38;100.00
55301;BME280;58302;51.446;-2.000;2022-10-04T21:13:55;100471.38;;;15.39;100.00
55301;BME280;58302;51.446;-2.000;2022-10-04T21:16:39;100472.78;;;15.36;100.00
55301;BME280;58302;51.446;-2.000;2022-10-04T21:22:07;100477.97;;;15.38;100.00
55301;BME280;58302;51.446;-2.000;2022-10-04T21:27:02;100476.34;;;15.37;100.00
55301;BME280;58302;51.446;-2.000;2022-10-04T21:29:28;100456.59;;;15.40;100.00
55301;BME280;58302;51.446;-2.000;2022-10-04T21:31:55;100460.13;;;15.40;100.00
55301;BME280;58302;51.446;-2.000;2022-10-04T21:34:22;100464.50;;;15.41;100.00
55301;BME280;58302;51.446;-2.000;2022-10-04T21:36:48;100454.13;;;15.38;100.00
55301;BME280;58302;51.446;-2.000;2022-10-04T21:39:14;100448.63;;;15.38;100.00
55301;BME280;58302;51.446;-2.000;2022-10-04T21:41:40;100452.50;;;15.37;100.00
55301;BME280;58302;51.446;-2.000;2022-10-04T21:44:06;100439.41;;;15.34;100.00
55301;BME280;58302;51.446;-2.000;2022-10-04T21:46:33;100438.31;;;15.35;100.00
55301;BME280;58302;51.446;-2.000;2022-10-04T21:48:59;100431.19;;;15.34;100.00
55301;BME280;58302;51.446;-2.000;2022-10-04T21:51:25;100430.16;;;15.30;100.00
55301;BME280;58302;51.446;-2.000;2022-10-04T21:53:51;100440.81;;;15.32;100.00
55301;BME280;58302;51.446;-2.000;2022-10-04T21:56:17;100431.19;;;15.34;100.00
55301;BME280;58302;51.446;-2.000;2022-10-04T21:58:43;100430.66;;;15.32;100.00
55301;BME280;58302;51.446;-2.000;2022-10-04T22:01:09;100423.56;;;15.31;100.00
55301;BME280;58302;51.446;-2.000;2022-10-04T22:03:35;100412.84;;;15.35;100.00
55301;BME280;58302;51.446;-2.000;2022-10-04T22:06:01;100414.47;;;15.36;100.00
55301;BME280;58302;51.446;-2.000;2022-10-04T22:08:27;100407.38;;;15.35;100.00
55301;BME280;58302;51.446;-2.000;2022-10-04T22:10:53;100409.78;;;15.36;100.00
55301;BME280;58302;51.446;-2.000;2022-10-04T22:13:19;100413.66;;;15.35;100.00
55301;BME280;58302;51.446;-2.000;2022-10-04T22:15:45;100402.69;;;15.35;100.00
55301;BME280;58302;51.446;-2.000;2022-10-04T22:18:11;100393.38;;;15.36;100.00
55301;BME280;58302;51.446;-2.000;2022-10-04T22:20:37;100409.78;;;15.36;100.00
55301;BME280;58302;51.446;-2.000;2022-10-04T22:23:09;100375.81;;;15.37;100.00
55301;BME280;58302;51.446;-2.000;2022-10-04T22:25:38;100410.59;;;15.37;100.00
55301;BME280;58302;51.446;-2.000;2022-10-04T22:28:21;100399.34;;;15.38;100.00
55301;BME280;58302;51.446;-2.000;2022-10-04T22:30:47;100396.59;;;15.38;100.00
55301;BME280;58302;51.446;-2.000;2022-10-04T22:33:31;100392.25;;;15.37;100.00
55301;BME280;58302;51.446;-2.000;2022-10-04T22:36:09;100376.13;;;15.36;100.00
55301;BME280;58302;51.446;-2.000;2022-10-04T22:38:38;100390.84;;;15.40;100.00
55301;BME280;58302;51.446;-2.000;2022-10-04T22:41:11;100390.03;;;15.39;100.00
55301;BME280;58302;51.446;-2.000;2022-10-04T22:43:37;100381.22;;;15.42;100.00
55301;BME280;58302;51.446;-2.000;2022-10-04T22:46:04;100387.50;;;15.43;100.00
55301;BME280;58302;51.446;-2.000;2022-10-04T22:48:30;100389.16;;;15.44;100.00
55301;BME280;58302;51.446;-2.000;2022-10-04T22:50:57;100395.44;;;15.44;100.00
55301;BME280;58302;51.446;-2.000;2022-10-04T22:53:23;100386.09;;;15.45;100.00